Camp Verde, Texas
Current Conditions -  °F | °C
As of 10:35 AM on Thursday 30 Oct 2014 (Local Time) from KERV Reporting Station
Overcast Overcast  
Wind Chill: 20°   Ceiling: 1200
Heat Index: 20°   Visibility: 7mi
Dew Point: 17°   Wind: 3mph
Humidity: 85%   Direction: 150°SSE
Pressure: 30.17"   Gusts: NA
Location:  29.9075°N, 98.9982°W
Report Text: KERV 301535Z AUTO 15003KT 7SM OVC012 20/17 A3017 RMK AO2 T01950170
Loading
Personal Weather Stations






























Interactive Weather Map
Tropical Storm Tracking
New forecast layout! Learn more

10-Day Weather Forecast

Advertisements
Track Severe Weather on mobile